sensor_id;sensor_type;location;lat;lon;timestamp;temperature;humidity
21502;DHT22;27639;48.674;9.242;2023-03-26T00:00:54;12.00;55.90
21502;DHT22;27639;48.674;9.242;2023-03-26T00:03:21;12.00;56.00
21502;DHT22;27639;48.674;9.242;2023-03-26T00:05:47;12.00;56.00
21502;DHT22;27639;48.674;9.242;2023-03-26T00:08:14;12.00;55.90
21502;DHT22;27639;48.674;9.242;2023-03-26T00:10:40;11.90;55.80
21502;DHT22;27639;48.674;9.242;2023-03-26T00:13:07;11.90;55.80
21502;DHT22;27639;48.674;9.242;2023-03-26T00:15:34;11.90;55.90
21502;DHT22;27639;48.674;9.242;2023-03-26T00:18:00;11.90;55.90
21502;DHT22;27639;48.674;9.242;2023-03-26T00:20:28;11.80;55.90
21502;DHT22;27639;48.674;9.242;2023-03-26T00:22:54;11.80;56.50
21502;DHT22;27639;48.674;9.242;2023-03-26T00:25:22;11.80;56.00
21502;DHT22;27639;48.674;9.242;2023-03-26T00:27:49;11.80;56.10
21502;DHT22;27639;48.674;9.242;2023-03-26T00:30:15;11.60;56.30
21502;DHT22;27639;48.674;9.242;2023-03-26T00:32:41;11.60;56.50
21502;DHT22;27639;48.674;9.242;2023-03-26T00:35:07;11.60;56.60
21502;DHT22;27639;48.674;9.242;2023-03-26T00:37:33;11.50;56.70
21502;DHT22;27639;48.674;9.242;2023-03-26T00:39:59;11.60;56.60
21502;DHT22;27639;48.674;9.242;2023-03-26T00:42:31;11.50;56.60
21502;DHT22;27639;48.674;9.242;2023-03-26T00:44:57;11.50;56.70
21502;DHT22;27639;48.674;9.242;2023-03-26T00:47:24;11.50;56.60
21502;DHT22;27639;48.674;9.242;2023-03-26T00:49:50;11.40;56.70
21502;DHT22;27639;48.674;9.242;2023-03-26T00:52:16;11.50;56.70
21502;DHT22;27639;48.674;9.242;2023-03-26T00:54:52;11.50;56.60
21502;DHT22;27639;48.674;9.242;2023-03-26T00:57:19;11.50;56.60
21502;DHT22;27639;48.674;9.242;2023-03-26T00:59:48;11.40;56.70
21502;DHT22;27639;48.674;9.242;2023-03-26T01:02:16;11.40;56.70
21502;DHT22;27639;48.674;9.242;2023-03-26T01:04:51;11.40;56.70
21502;DHT22;27639;48.674;9.242;2023-03-26T01:07:21;11.30;56.70
21502;DHT22;27639;48.674;9.242;2023-03-26T01:09:55;11.30;56.80
21502;DHT22;27639;48.674;9.242;2023-03-26T01:12:25;11.30;56.90
21502;DHT22;27639;48.674;9.242;2023-03-26T01:14:53;11.20;57.20
21502;DHT22;27639;48.674;9.242;2023-03-26T01:17:19;11.10;57.20
21502;DHT22;27639;48.674;9.242;2023-03-26T01:19:57;11.20;57.30
21502;DHT22;27639;48.674;9.242;2023-03-26T01:22:38;11.20;57.30
21502;DHT22;27639;48.674;9.242;2023-03-26T01:25:05;11.10;57.20
21502;DHT22;27639;48.674;9.242;2023-03-26T01:27:51;11.20;57.30
21502;DHT22;27639;48.674;9.242;2023-03-26T01:30:34;11.20;57.20
21502;DHT22;27639;48.674;9.242;2023-03-26T01:33:25;11.20;57.10
21502;DHT22;27639;48.674;9.242;2023-03-26T01:36:25;11.20;57.00
21502;DHT22;27639;48.674;9.242;2023-03-26T01:44:33;11.40;56.90
21502;DHT22;27639;48.674;9.242;2023-03-26T01:47:00;11.40;56.80
21502;DHT22;27639;48.674;9.242;2023-03-26T01:49:27;11.40;56.80
21502;DHT22;27639;48.674;9.242;2023-03-26T01:51:54;11.40;56.70
21502;DHT22;27639;48.674;9.242;2023-03-26T01:54:23;11.40;56.60
21502;DHT22;27639;48.674;9.242;2023-03-26T01:59:44;11.40;56.50
21502;DHT22;27639;48.674;9.242;2023-03-26T02:04:53;11.40;56.50
21502;DHT22;27639;48.674;9.242;2023-03-26T02:07:34;11.40;56.20
21502;DHT22;27639;48.674;9.242;2023-03-26T02:10:28;11.30;56.20
21502;DHT22;27639;48.674;9.242;2023-03-26T02:12:55;11.30;56.20
21502;DHT22;27639;48.674;9.242;2023-03-26T02:15:21;11.30;56.40
21502;DHT22;27639;48.674;9.242;2023-03-26T02:17:47;11.30;56.30
21502;DHT22;27639;48.674;9.242;2023-03-26T02:20:14;11.30;56.30
21502;DHT22;27639;48.674;9.242;2023-03-26T02:22:43;11.30;56.20
21502;DHT22;27639;48.674;9.242;2023-03-26T02:25:15;11.30;56.30
21502;DHT22;27639;48.674;9.242;2023-03-26T02:27:42;11.30;56.40
21502;DHT22;27639;48.674;9.242;2023-03-26T02:30:10;11.30;56.50
21502;DHT22;27639;48.674;9.242;2023-03-26T02:32:36;11.30;56.40
21502;DHT22;27639;48.674;9.242;2023-03-26T02:35:03;11.30;56.50
21502;DHT22;27639;48.674;9.242;2023-03-26T02:37:30;11.20;56.50
21502;DHT22;27639;48.674;9.242;2023-03-26T02:39:58;11.20;56.50
21502;DHT22;27639;48.674;9.242;2023-03-26T02:42:24;11.20;56.60
21502;DHT22;27639;48.674;9.242;2023-03-26T02:44:50;11.20;56.50
21502;DHT22;27639;48.674;9.242;2023-03-26T02:47:15;11.20;56.60
21502;DHT22;27639;48.674;9.242;2023-03-26T02:49:41;11.20;56.50
21502;DHT22;27639;48.674;9.242;2023-03-26T02:52:07;11.30;56.40
21502;DHT22;27639;48.674;9.242;2023-03-26T02:54:33;11.30;56.40
21502;DHT22;27639;48.674;9.242;2023-03-26T02:56:59;11.30;56.40
21502;DHT22;27639;48.674;9.242;2023-03-26T02:59:25;11.30;56.40
21502;DHT22;27639;48.674;9.242;2023-03-26T03:01:51;11.30;56.40
21502;DHT22;27639;48.674;9.242;2023-03-26T03:04:18;11.30;56.50
21502;DHT22;27639;48.674;9.242;2023-03-26T03:06:44;11.30;56.50
21502;DHT22;27639;48.674;9.242;2023-03-26T03:09:11;11.30;56.50
21502;DHT22;27639;48.674;9.242;2023-03-26T03:11:38;11.40;56.60
21502;DHT22;27639;48.674;9.242;2023-03-26T03:14:04;11.40;56.60
21502;DHT22;27639;48.674;9.242;2023-03-26T03:16:31;11.40;56.50
21502;DHT22;27639;48.674;9.242;2023-03-26T03:18:57;11.40;56.50
21502;DHT22;27639;48.674;9.242;2023-03-26T03:21:23;11.40;56.50
21502;DHT22;27639;48.674;9.242;2023-03-26T03:23:49;11.50;56.50
21502;DHT22;27639;48.674;9.242;2023-03-26T03:26:18;11.50;56.30
21502;DHT22;27639;48.674;9.242;2023-03-26T03:28:49;11.60;56.30
21502;DHT22;27639;48.674;9.242;2023-03-26T03:31:16;11.60;56.30
21502;DHT22;27639;48.674;9.242;2023-03-26T03:33:42;11.70;56.20
21502;DHT22;27639;48.674;9.242;2023-03-26T03:36:12;11.70;56.20
21502;DHT22;27639;48.674;9.242;2023-03-26T03:38:39;11.70;56.00
21502;DHT22;27639;48.674;9.242;2023-03-26T03:41:06;11.80;56.00
21502;DHT22;27639;48.674;9.242;2023-03-26T03:43:33;11.80;55.90
21502;DHT22;27639;48.674;9.242;2023-03-26T03:45:59;11.90;55.80
21502;DHT22;27639;48.674;9.242;2023-03-26T03:48:25;11.90;55.80
21502;DHT22;27639;48.674;9.242;2023-03-26T03:50:52;11.80;55.70
21502;DHT22;27639;48.674;9.242;2023-03-26T03:53:18;11.80;55.70
21502;DHT22;27639;48.674;9.242;2023-03-26T03:55:44;11.80;55.70
21502;DHT22;27639;48.674;9.242;2023-03-26T03:58:18;11.80;55.60
21502;DHT22;27639;48.674;9.242;2023-03-26T04:00:50;11.80;55.70
21502;DHT22;27639;48.674;9.242;2023-03-26T04:03:16;11.80;55.80
21502;DHT22;27639;48.674;9.242;2023-03-26T04:05:43;11.80;55.70
21502;DHT22;27639;48.674;9.242;2023-03-26T04:08:15;11.80;55.60
21502;DHT22;27639;48.674;9.242;2023-03-26T04:10:41;11.80;55.60
21502;DHT22;27639;48.674;9.242;2023-03-26T04:13:08;11.80;55.40
21502;DHT22;27639;48.674;9.242;2023-03-26T04:15:34;11.90;55.40
21502;DHT22;27639;48.674;9.242;2023-03-26T04:18:00;11.90;55.40
21502;DHT22;27639;48.674;9.242;2023-03-26T04:20:26;11.90;55.40
21502;DHT22;27639;48.674;9.242;2023-03-26T04:22:52;11.90;55.30
21502;DHT22;27639;48.674;9.242;2023-03-26T04:25:18;11.90;55.20
21502;DHT22;27639;48.674;9.242;2023-03-26T04:27:44;11.90;55.20
21502;DHT22;27639;48.674;9.242;2023-03-26T04:30:13;11.90;55.20
21502;DHT22;27639;48.674;9.242;2023-03-26T04:32:40;12.00;55.30
21502;DHT22;27639;48.674;9.242;2023-03-26T04:35:09;12.00;55.10
21502;DHT22;27639;48.674;9.242;2023-03-26T04:37:38;12.00;55.10
21502;DHT22;27639;48.674;9.242;2023-03-26T04:40:15;12.00;55.00
21502;DHT22;27639;48.674;9.242;2023-03-26T04:42:40;12.10;55.10
21502;DHT22;27639;48.674;9.242;2023-03-26T04:45:12;12.10;55.00
21502;DHT22;27639;48.674;9.242;2023-03-26T04:47:38;12.10;54.90
21502;DHT22;27639;48.674;9.242;2023-03-26T04:50:05;12.00;54.80
21502;DHT22;27639;48.674;9.242;2023-03-26T04:52:32;12.00;54.70
21502;DHT22;27639;48.674;9.242;2023-03-26T04:54:58;12.00;54.60
21502;DHT22;27639;48.674;9.242;2023-03-26T04:57:37;12.00;54.60
21502;DHT22;27639;48.674;9.242;2023-03-26T05:00:05;12.00;54.60
21502;DHT22;27639;48.674;9.242;2023-03-26T05:02:39;12.00;54.60
21502;DHT22;27639;48.674;9.242;2023-03-26T05:05:06;11.90;54.60
21502;DHT22;27639;48.674;9.242;2023-03-26T05:07:32;11.90;54.60
21502;DHT22;27639;48.674;9.242;2023-03-26T05:09:57;11.90;54.70
21502;DHT22;27639;48.674;9.242;2023-03-26T05:12:23;11.80;54.60
21502;DHT22;27639;48.674;9.242;2023-03-26T05:14:49;11.80;54.70
21502;DHT22;27639;48.674;9.242;2023-03-26T05:17:15;11.70;54.70
21502;DHT22;27639;48.674;9.242;2023-03-26T05:19:43;11.80;54.80
21502;DHT22;27639;48.674;9.242;2023-03-26T05:22:09;11.80;54.90
21502;DHT22;27639;48.674;9.242;2023-03-26T05:24:34;11.80;54.90
21502;DHT22;27639;48.674;9.242;2023-03-26T05:27:00;11.80;55.40
21502;DHT22;27639;48.674;9.242;2023-03-26T05:29:25;11.80;54.60
21502;DHT22;27639;48.674;9.242;2023-03-26T05:31:51;11.80;54.60
21502;DHT22;27639;48.674;9.242;2023-03-26T05:34:18;11.90;54.70
21502;DHT22;27639;48.674;9.242;2023-03-26T05:36:43;11.80;54.70
21502;DHT22;27639;48.674;9.242;2023-03-26T05:39:09;11.80;54.80
21502;DHT22;27639;48.674;9.242;2023-03-26T05:41:35;11.90;54.80
21502;DHT22;27639;48.674;9.242;2023-03-26T05:44:00;11.80;54.80
21502;DHT22;27639;48.674;9.242;2023-03-26T05:46:26;11.90;54.70
21502;DHT22;27639;48.674;9.242;2023-03-26T05:48:52;11.90;54.70
21502;DHT22;27639;48.674;9.242;2023-03-26T05:51:18;11.90;54.60
21502;DHT22;27639;48.674;9.242;2023-03-26T05:53:44;11.90;54.60
21502;DHT22;27639;48.674;9.242;2023-03-26T05:56:10;12.00;54.40
21502;DHT22;27639;48.674;9.242;2023-03-26T05:58:36;12.00;54.30
21502;DHT22;27639;48.674;9.242;2023-03-26T06:01:07;12.00;54.10
21502;DHT22;27639;48.674;9.242;2023-03-26T06:03:36;12.10;54.00
21502;DHT22;27639;48.674;9.242;2023-03-26T06:06:05;12.10;53.80
21502;DHT22;27639;48.674;9.242;2023-03-26T06:08:31;12.00;53.90
21502;DHT22;27639;48.674;9.242;2023-03-26T06:11:03;12.00;53.90
21502;DHT22;27639;48.674;9.242;2023-03-26T06:13:29;12.00;54.30
21502;DHT22;27639;48.674;9.242;2023-03-26T06:15:55;11.90;54.00
21502;DHT22;27639;48.674;9.242;2023-03-26T06:18:23;11.90;54.20
21502;DHT22;27639;48.674;9.242;2023-03-26T06:20:50;11.90;54.30
21502;DHT22;27639;48.674;9.242;2023-03-26T06:23:16;11.90;54.20
21502;DHT22;27639;48.674;9.242;2023-03-26T06:25:42;11.90;54.20
21502;DHT22;27639;48.674;9.242;2023-03-26T06:28:10;12.00;54.40
21502;DHT22;27639;48.674;9.242;2023-03-26T06:30:36;12.00;54.60
21502;DHT22;27639;48.674;9.242;2023-03-26T06:33:02;12.00;54.70
21502;DHT22;27639;48.674;9.242;2023-03-26T06:35:27;12.00;54.60
21502;DHT22;27639;48.674;9.242;2023-03-26T06:37:54;12.10;54.80
21502;DHT22;27639;48.674;9.242;2023-03-26T06:40:20;12.10;55.00
21502;DHT22;27639;48.674;9.242;2023-03-26T06:42:45;12.10;55.10
21502;DHT22;27639;48.674;9.242;2023-03-26T06:45:11;12.10;54.80
21502;DHT22;27639;48.674;9.242;2023-03-26T06:47:36;12.10;54.60
21502;DHT22;27639;48.674;9.242;2023-03-26T06:50:03;12.10;54.30
21502;DHT22;27639;48.674;9.242;2023-03-26T06:52:28;12.00;54.90
21502;DHT22;27639;48.674;9.242;2023-03-26T06:54:54;12.00;54.20
21502;DHT22;27639;48.674;9.242;2023-03-26T06:57:19;12.00;54.10
21502;DHT22;27639;48.674;9.242;2023-03-26T06:59:45;12.10;54.10
21502;DHT22;27639;48.674;9.242;2023-03-26T07:02:11;12.10;54.00
21502;DHT22;27639;48.674;9.242;2023-03-26T07:04:37;12.10;53.80
21502;DHT22;27639;48.674;9.242;2023-03-26T07:07:02;12.10;53.70
21502;DHT22;27639;48.674;9.242;2023-03-26T07:09:28;12.10;53.70
21502;DHT22;27639;48.674;9.242;2023-03-26T07:11:57;12.20;53.80
21502;DHT22;27639;48.674;9.242;2023-03-26T07:14:23;12.10;53.80
21502;DHT22;27639;48.674;9.242;2023-03-26T07:16:50;12.10;54.00
21502;DHT22;27639;48.674;9.242;2023-03-26T07:19:16;12.10;54.00
21502;DHT22;27639;48.674;9.242;2023-03-26T07:21:42;12.00;54.20
21502;DHT22;27639;48.674;9.242;2023-03-26T07:24:11;12.00;54.20
21502;DHT22;27639;48.674;9.242;2023-03-26T07:26:57;12.10;54.30
21502;DHT22;27639;48.674;9.242;2023-03-26T07:29:48;12.10;55.00
21502;DHT22;27639;48.674;9.242;2023-03-26T07:45:38;11.90;55.40
21502;DHT22;27639;48.674;9.242;2023-03-26T07:48:17;11.90;55.90
21502;DHT22;27639;48.674;9.242;2023-03-26T07:50:45;11.90;56.00
21502;DHT22;27639;48.674;9.242;2023-03-26T07:53:11;11.90;56.30
21502;DHT22;27639;48.674;9.242;2023-03-26T07:55:51;12.00;56.40
21502;DHT22;27639;48.674;9.242;2023-03-26T08:00:59;12.00;56.40
21502;DHT22;27639;48.674;9.242;2023-03-26T08:06:15;11.90;57.00
21502;DHT22;27639;48.674;9.242;2023-03-26T08:08:52;11.90;57.00
21502;DHT22;27639;48.674;9.242;2023-03-26T08:21:29;11.90;58.00
21502;DHT22;27639;48.674;9.242;2023-03-26T08:27:17;12.00;58.10
21502;DHT22;27639;48.674;9.242;2023-03-26T08:32:04;11.80;58.50
21502;DHT22;27639;48.674;9.242;2023-03-26T08:34:33;11.90;59.00
21502;DHT22;27639;48.674;9.242;2023-03-26T08:36:58;12.00;59.10
21502;DHT22;27639;48.674;9.242;2023-03-26T08:39:25;12.00;59.10
21502;DHT22;27639;48.674;9.242;2023-03-26T08:59:41;11.90;60.50
21502;DHT22;27639;48.674;9.242;2023-03-26T09:02:18;11.80;60.70
21502;DHT22;27639;48.674;9.242;2023-03-26T09:08:02;11.80;61.80
21502;DHT22;27639;48.674;9.242;2023-03-26T09:10:49;11.70;62.30
21502;DHT22;27639;48.674;9.242;2023-03-26T09:19:04;11.80;63.00
21502;DHT22;27639;48.674;9.242;2023-03-26T09:30:41;12.40;63.80
21502;DHT22;27639;48.674;9.242;2023-03-26T09:36:31;12.40;62.90
21502;DHT22;27639;48.674;9.242;2023-03-26T09:49:09;13.10;64.00
21502;DHT22;27639;48.674;9.242;2023-03-26T09:51:50;13.40;63.80
21502;DHT22;27639;48.674;9.242;2023-03-26T10:03:11;13.90;60.40
21502;DHT22;27639;48.674;9.242;2023-03-26T10:11:48;14.30;59.50
21502;DHT22;27639;48.674;9.242;2023-03-26T10:14:22;14.50;59.10
21502;DHT22;27639;48.674;9.242;2023-03-26T10:22:12;14.80;57.50
21502;DHT22;27639;48.674;9.242;2023-03-26T10:27:54;14.70;56.90
21502;DHT22;27639;48.674;9.242;2023-03-26T10:30:27;14.80;58.00
21502;DHT22;27639;48.674;9.242;2023-03-26T10:33:12;15.00;57.90
21502;DHT22;27639;48.674;9.242;2023-03-26T10:41:54;16.00;56.80
21502;DHT22;27639;48.674;9.242;2023-03-26T10:52:24;16.70;52.90
21502;DHT22;27639;48.674;9.242;2023-03-26T10:54:57;16.80;52.10
21502;DHT22;27639;48.674;9.242;2023-03-26T10:57:46;16.80;51.50
21502;DHT22;27639;48.674;9.242;2023-03-26T11:00:22;17.00;52.20
21502;DHT22;27639;48.674;9.242;2023-03-26T11:05:44;17.00;49.00
21502;DHT22;27639;48.674;9.242;2023-03-26T11:08:17;17.00;48.50
21502;DHT22;27639;48.674;9.242;2023-03-26T11:10:54;16.90;48.20
21502;DHT22;27639;48.674;9.242;2023-03-26T11:13:38;16.80;47.30
21502;DHT22;27639;48.674;9.242;2023-03-26T11:16:24;16.90;48.10
21502;DHT22;27639;48.674;9.242;2023-03-26T11:19:03;17.00;48.40
21502;DHT22;27639;48.674;9.242;2023-03-26T11:21:35;17.20;48.60
21502;DHT22;27639;48.674;9.242;2023-03-26T11:26:55;17.50;48.80
21502;DHT22;27639;48.674;9.242;2023-03-26T11:32:03;17.50;46.50
21502;DHT22;27639;48.674;9.242;2023-03-26T11:34:36;17.50;46.90
21502;DHT22;27639;48.674;9.242;2023-03-26T11:37:05;17.50;46.70
21502;DHT22;27639;48.674;9.242;2023-03-26T11:39:43;17.60;46.40
21502;DHT22;27639;48.674;9.242;2023-03-26T11:42:13;17.60;46.70
21502;DHT22;27639;48.674;9.242;2023-03-26T11:44:45;17.70;47.20
21502;DHT22;27639;48.674;9.242;2023-03-26T11:47:16;17.80;46.60
21502;DHT22;27639;48.674;9.242;2023-03-26T11:49:44;17.80;46.60
21502;DHT22;27639;48.674;9.242;2023-03-26T11:52:11;17.70;46.20
21502;DHT22;27639;48.674;9.242;2023-03-26T11:54:39;17.80;46.90
21502;DHT22;27639;48.674;9.242;2023-03-26T11:57:21;17.80;45.80
21502;DHT22;27639;48.674;9.242;2023-03-26T11:59:57;17.80;45.80
21502;DHT22;27639;48.674;9.242;2023-03-26T12:02:29;17.90;45.90
21502;DHT22;27639;48.674;9.242;2023-03-26T12:05:46;18.00;45.00
21502;DHT22;27639;48.674;9.242;2023-03-26T12:08:32;18.10;43.60
21502;DHT22;27639;48.674;9.242;2023-03-26T12:11:04;18.00;43.60
21502;DHT22;27639;48.674;9.242;2023-03-26T12:13:37;18.10;43.10
21502;DHT22;27639;48.674;9.242;2023-03-26T12:16:16;18.10;42.90
21502;DHT22;27639;48.674;9.242;2023-03-26T12:18:42;18.20;43.00
21502;DHT22;27639;48.674;9.242;2023-03-26T12:21:15;18.20;42.40
21502;DHT22;27639;48.674;9.242;2023-03-26T12:24:02;18.40;42.40
21502;DHT22;27639;48.674;9.242;2023-03-26T12:26:43;18.50;42.80
21502;DHT22;27639;48.674;9.242;2023-03-26T12:29:16;18.40;42.00
21502;DHT22;27639;48.674;9.242;2023-03-26T12:34:28;18.40;42.00
21502;DHT22;27639;48.674;9.242;2023-03-26T12:36:57;18.10;40.90
21502;DHT22;27639;48.674;9.242;2023-03-26T12:39:39;18.20;41.40
21502;DHT22;27639;48.674;9.242;2023-03-26T12:42:24;18.30;40.60
21502;DHT22;27639;48.674;9.242;2023-03-26T12:44:51;18.40;39.40
21502;DHT22;27639;48.674;9.242;2023-03-26T12:49:43;18.40;40.80
21502;DHT22;27639;48.674;9.242;2023-03-26T12:57:58;18.80;40.00
21502;DHT22;27639;48.674;9.242;2023-03-26T13:03:08;19.10;39.40
21502;DHT22;27639;48.674;9.242;2023-03-26T13:16:52;19.20;37.80
21502;DHT22;27639;48.674;9.242;2023-03-26T13:19:33;19.20;37.90
21502;DHT22;27639;48.674;9.242;2023-03-26T13:30:35;19.80;37.20
21502;DHT22;27639;48.674;9.242;2023-03-26T13:35:53;19.80;36.70
21502;DHT22;27639;48.674;9.242;2023-03-26T13:38:42;19.80;35.90
21502;DHT22;27639;48.674;9.242;2023-03-26T13:47:16;19.50;36.00
21502;DHT22;27639;48.674;9.242;2023-03-26T13:49:54;19.40;35.80
21502;DHT22;27639;48.674;9.242;2023-03-26T13:53:05;19.30;35.40
21502;DHT22;27639;48.674;9.242;2023-03-26T13:57:53;19.20;36.00
21502;DHT22;27639;48.674;9.242;2023-03-26T14:00:47;19.20;36.00
21502;DHT22;27639;48.674;9.242;2023-03-26T14:03:26;19.20;35.80
21502;DHT22;27639;48.674;9.242;2023-03-26T14:05:56;19.10;36.30
21502;DHT22;27639;48.674;9.242;2023-03-26T14:08:32;19.10;36.50
21502;DHT22;27639;48.674;9.242;2023-03-26T14:11:20;18.90;36.50
21502;DHT22;27639;48.674;9.242;2023-03-26T14:13:53;18.60;36.90
21502;DHT22;27639;48.674;9.242;2023-03-26T14:16:25;18.40;37.30
21502;DHT22;27639;48.674;9.242;2023-03-26T14:19:00;18.20;37.80
21502;DHT22;27639;48.674;9.242;2023-03-26T14:33:18;17.40;39.20
21502;DHT22;27639;48.674;9.242;2023-03-26T14:42:07;16.20;42.80
21502;DHT22;27639;48.674;9.242;2023-03-26T14:44:53;15.90;43.70
21502;DHT22;27639;48.674;9.242;2023-03-26T14:47:22;15.70;44.90
21502;DHT22;27639;48.674;9.242;2023-03-26T14:52:52;15.40;47.00
21502;DHT22;27639;48.674;9.242;2023-03-26T15:28:32;14.40;50.20
21502;DHT22;27639;48.674;9.242;2023-03-26T15:33:59;14.30;50.70
21502;DHT22;27639;48.674;9.242;2023-03-26T15:36:53;14.10;50.80
21502;DHT22;27639;48.674;9.242;2023-03-26T15:48:10;13.70;52.10
21502;DHT22;27639;48.674;9.242;2023-03-26T16:04:34;12.90;52.50
21502;DHT22;27639;48.674;9.242;2023-03-26T16:10:33;12.70;53.10
21502;DHT22;27639;48.674;9.242;2023-03-26T16:15:42;12.50;53.60
21502;DHT22;27639;48.674;9.242;2023-03-26T16:18:15;12.50;53.40
21502;DHT22;27639;48.674;9.242;2023-03-26T16:24:18;12.50;53.10
21502;DHT22;27639;48.674;9.242;2023-03-26T16:29:19;12.30;53.40
21502;DHT22;27639;48.674;9.242;2023-03-26T16:32:09;12.20;53.70
21502;DHT22;27639;48.674;9.242;2023-03-26T16:34:55;12.30;53.60
21502;DHT22;27639;48.674;9.242;2023-03-26T16:40:25;11.80;53.80
21502;DHT22;27639;48.674;9.242;2023-03-26T16:54:22;11.80;53.80
21502;DHT22;27639;48.674;9.242;2023-03-26T16:57:33;11.60;54.00
21502;DHT22;27639;48.674;9.242;2023-03-26T17:16:25;11.10;54.90
21502;DHT22;27639;48.674;9.242;2023-03-26T17:19:28;11.10;54.80
21502;DHT22;27639;48.674;9.242;2023-03-26T17:25:03;10.90;55.50
21502;DHT22;27639;48.674;9.242;2023-03-26T17:41:06;10.80;55.90
21502;DHT22;27639;48.674;9.242;2023-03-26T17:43:41;10.80;55.80
21502;DHT22;27639;48.674;9.242;2023-03-26T17:49:17;10.80;55.70
21502;DHT22;27639;48.674;9.242;2023-03-26T17:54:33;10.80;55.70
21502;DHT22;27639;48.674;9.242;2023-03-26T17:57:11;10.80;55.80
21502;DHT22;27639;48.674;9.242;2023-03-26T17:59:39;10.80;56.00
21502;DHT22;27639;48.674;9.242;2023-03-26T18:02:15;10.80;56.00
21502;DHT22;27639;48.674;9.242;2023-03-26T18:04:42;10.70;55.90
21502;DHT22;27639;48.674;9.242;2023-03-26T18:15:32;10.70;56.20
21502;DHT22;27639;48.674;9.242;2023-03-26T18:18:13;10.80;56.00
21502;DHT22;27639;48.674;9.242;2023-03-26T18:20:43;10.80;56.00
21502;DHT22;27639;48.674;9.242;2023-03-26T18:23:21;10.80;56.10
21502;DHT22;27639;48.674;9.242;2023-03-26T18:25:55;10.80;56.00
21502;DHT22;27639;48.674;9.242;2023-03-26T18:28:29;10.80;56.10
21502;DHT22;27639;48.674;9.242;2023-03-26T18:31:07;10.80;56.10
21502;DHT22;27639;48.674;9.242;2023-03-26T18:33:44;10.70;56.00
21502;DHT22;27639;48.674;9.242;2023-03-26T18:36:10;10.80;56.10
21502;DHT22;27639;48.674;9.242;2023-03-26T18:38:36;10.80;56.00
21502;DHT22;27639;48.674;9.242;2023-03-26T18:41:02;10.80;55.90
21502;DHT22;27639;48.674;9.242;2023-03-26T18:43:32;10.80;55.90
21502;DHT22;27639;48.674;9.242;2023-03-26T18:45:58;10.80;55.70
21502;DHT22;27639;48.674;9.242;2023-03-26T18:48:24;10.80;55.80
21502;DHT22;27639;48.674;9.242;2023-03-26T18:50:55;10.80;55.70
21502;DHT22;27639;48.674;9.242;2023-03-26T18:53:26;10.80;55.70
21502;DHT22;27639;48.674;9.242;2023-03-26T18:55:55;10.80;55.90
21502;DHT22;27639;48.674;9.242;2023-03-26T18:58:33;10.70;55.70
21502;DHT22;27639;48.674;9.242;2023-03-26T19:01:01;10.80;55.70
21502;DHT22;27639;48.674;9.242;2023-03-26T19:03:30;10.80;55.70
21502;DHT22;27639;48.674;9.242;2023-03-26T19:06:00;10.70;55.90
21502;DHT22;27639;48.674;9.242;2023-03-26T19:08:29;10.70;55.90
21502;DHT22;27639;48.674;9.242;2023-03-26T19:10:55;10.80;56.00
21502;DHT22;27639;48.674;9.242;2023-03-26T19:13:21;10.80;56.10
21502;DHT22;27639;48.674;9.242;2023-03-26T19:15:49;10.70;56.20
21502;DHT22;27639;48.674;9.242;2023-03-26T19:18:22;10.70;56.20
21502;DHT22;27639;48.674;9.242;2023-03-26T19:20:52;10.70;56.20
21502;DHT22;27639;48.674;9.242;2023-03-26T19:23:20;10.70;56.40
21502;DHT22;27639;48.674;9.242;2023-03-26T19:25:52;10.70;56.60
21502;DHT22;27639;48.674;9.242;2023-03-26T19:28:37;10.70;56.70
21502;DHT22;27639;48.674;9.242;2023-03-26T19:31:15;10.70;56.60
21502;DHT22;27639;48.674;9.242;2023-03-26T19:33:44;10.60;56.70
21502;DHT22;27639;48.674;9.242;2023-03-26T19:38:50;10.70;57.00
21502;DHT22;27639;48.674;9.242;2023-03-26T19:41:34;10.80;56.90
21502;DHT22;27639;48.674;9.242;2023-03-26T19:44:23;10.80;56.90
21502;DHT22;27639;48.674;9.242;2023-03-26T19:46:50;10.80;57.10
21502;DHT22;27639;48.674;9.242;2023-03-26T19:49:28;10.80;57.30
21502;DHT22;27639;48.674;9.242;2023-03-26T19:52:15;10.80;57.20
21502;DHT22;27639;48.674;9.242;2023-03-26T19:55:00;10.90;57.30
21502;DHT22;27639;48.674;9.242;2023-03-26T19:57:30;10.80;57.30
21502;DHT22;27639;48.674;9.242;2023-03-26T19:59:57;10.80;57.50
21502;DHT22;27639;48.674;9.242;2023-03-26T20:02:24;10.80;57.50
21502;DHT22;27639;48.674;9.242;2023-03-26T20:04:50;10.70;58.10
21502;DHT22;27639;48.674;9.242;2023-03-26T20:07:20;10.70;57.40
21502;DHT22;27639;48.674;9.242;2023-03-26T20:09:51;10.70;57.40
21502;DHT22;27639;48.674;9.242;2023-03-26T20:12:17;10.70;57.40
21502;DHT22;27639;48.674;9.242;2023-03-26T20:14:44;10.60;57.20
21502;DHT22;27639;48.674;9.242;2023-03-26T20:17:18;10.50;57.00
21502;DHT22;27639;48.674;9.242;2023-03-26T20:19:45;10.40;56.90
21502;DHT22;27639;48.674;9.242;2023-03-26T20:22:16;10.40;56.90
21502;DHT22;27639;48.674;9.242;2023-03-26T20:24:44;10.40;56.90
21502;DHT22;27639;48.674;9.242;2023-03-26T20:27:10;10.30;56.80
21502;DHT22;27639;48.674;9.242;2023-03-26T20:29:39;10.30;56.60
21502;DHT22;27639;48.674;9.242;2023-03-26T20:32:31;10.30;56.50
21502;DHT22;27639;48.674;9.242;2023-03-26T20:34:58;10.20;56.20
21502;DHT22;27639;48.674;9.242;2023-03-26T20:37:24;10.20;56.60
21502;DHT22;27639;48.674;9.242;2023-03-26T20:39:50;10.20;56.40
21502;DHT22;27639;48.674;9.242;2023-03-26T20:42:16;10.20;56.30
21502;DHT22;27639;48.674;9.242;2023-03-26T20:44:41;10.20;56.30
21502;DHT22;27639;48.674;9.242;2023-03-26T20:47:09;10.20;56.30
21502;DHT22;27639;48.674;9.242;2023-03-26T20:49:35;10.10;56.30
21502;DHT22;27639;48.674;9.242;2023-03-26T20:52:01;10.00;56.20
21502;DHT22;27639;48.674;9.242;2023-03-26T20:54:27;10.10;56.20
21502;DHT22;27639;48.674;9.242;2023-03-26T20:56:54;10.10;56.10
21502;DHT22;27639;48.674;9.242;2023-03-26T20:59:22;10.10;56.10
21502;DHT22;27639;48.674;9.242;2023-03-26T21:01:51;10.10;56.10
21502;DHT22;27639;48.674;9.242;2023-03-26T21:04:17;10.10;56.00
21502;DHT22;27639;48.674;9.242;2023-03-26T21:06:44;10.10;56.00
21502;DHT22;27639;48.674;9.242;2023-03-26T21:09:12;10.10;56.00
21502;DHT22;27639;48.674;9.242;2023-03-26T21:11:57;10.10;56.00
21502;DHT22;27639;48.674;9.242;2023-03-26T21:17:11;10.00;56.10
21502;DHT22;27639;48.674;9.242;2023-03-26T21:19:37;10.00;56.30
21502;DHT22;27639;48.674;9.242;2023-03-26T21:25:09;10.00;56.20
21502;DHT22;27639;48.674;9.242;2023-03-26T21:28:38;10.00;56.20
21502;DHT22;27639;48.674;9.242;2023-03-26T21:31:13;10.10;56.40
21502;DHT22;27639;48.674;9.242;2023-03-26T21:33:39;10.00;56.60
21502;DHT22;27639;48.674;9.242;2023-03-26T21:36:05;10.00;56.60
21502;DHT22;27639;48.674;9.242;2023-03-26T21:38:32;10.00;56.70
21502;DHT22;27639;48.674;9.242;2023-03-26T21:41:00;10.00;56.70